SMZO/ORG METAR and TAF weather

Enter ICAO airport designator
Station Type Date Time Source
SMZO METAR 2022/06/26 09:00 UTC NOAA

SMZO 260900Z 00000KT 9999 FEW008 SCT020 24/23 Q1012 NOSIG


Station Type Date Time Source
SMZO Decoded METAR 2022/06/26 09:00 UTC NOAA

Station name not available
Jun 26, 2022 - 05:00 AM EDT / 2022.06.26 0900 UTC
Wind: Calm:0
Visibility: greater than 7 mile(s):0
Sky conditions: partly cloudy
Temperature: 75 F (24 C)
Dew Point: 73 F (23 C)
Relative Humidity: 94%
Pressure (altimeter): 29.88 in. Hg (1012 hPa)
ob: SMZO 260900Z 00000KT 9999 FEW008 SCT020 24/23 Q1012 NOSIG
cycle: 9

Station Type Date Time Source
SMZO TAF 2022/06/26 06:00 UTC NOAA

TAF SMZO 260400Z 2606/2706 VRB02KT CAVOK TX32/2616Z TN24/2609Z
FM261200 24006KT 9999 SCT015
TEMPO 2618/2700 4000 SHRA SCT008 FEW015CB SCT020
TEMPO 2618/2621 TSRA

Example: see airport list